createdAt,value
2022-10-02T00:00:18.617Z,100231.55
2022-10-02T00:04:26.463Z,100237.20
2022-10-02T00:08:06.932Z,100238.13
2022-10-02T00:12:00.566Z,100246.02
2022-10-02T00:15:54.071Z,100248.02
2022-10-02T00:19:41.866Z,100252.23
2022-10-02T00:23:32.459Z,100256.72
2022-10-02T00:27:40.973Z,100256.94
2022-10-02T00:31:43.831Z,100269.10
2022-10-02T00:35:43.252Z,100272.42
2022-10-02T00:39:17.884Z,100273.09
2022-10-02T00:43:11.173Z,100275.70
2022-10-02T00:47:17.157Z,100281.75
2022-10-02T00:51:03.214Z,100284.39
2022-10-02T00:54:55.700Z,100293.52
2022-10-02T00:58:53.461Z,100299.92
2022-10-02T01:02:42.324Z,100297.84
2022-10-02T01:06:29.986Z,100305.23
2022-10-02T01:10:17.601Z,100307.79
2022-10-02T01:14:05.812Z,100309.95
2022-10-02T01:18:02.244Z,100310.85
2022-10-02T01:21:50.751Z,100315.83
2022-10-02T01:25:50.987Z,100329.06
2022-10-02T01:29:38.881Z,100336.71
2022-10-02T01:33:21.309Z,100345.45
2022-10-02T01:37:08.911Z,100351.89
2022-10-02T01:40:59.179Z,100353.03
2022-10-02T01:44:46.804Z,100359.45
2022-10-02T01:48:34.780Z,100360.21
2022-10-02T01:52:37.722Z,100369.23
2022-10-02T01:56:37.710Z,100371.20
2022-10-02T02:00:35.190Z,100378.09
2022-10-02T02:04:21.575Z,100382.91
2022-10-02T02:08:09.542Z,100387.52
2022-10-02T02:11:59.784Z,100393.48
2022-10-02T02:15:53.061Z,100397.58
2022-10-02T02:19:46.747Z,100397.71
2022-10-02T02:23:34.283Z,100404.98
2022-10-02T02:27:21.818Z,100416.20
2022-10-02T02:31:09.497Z,100418.92
2022-10-02T02:35:03.252Z,100417.92
2022-10-02T02:38:53.264Z,100424.34
2022-10-02T02:42:40.737Z,100420.20
2022-10-02T02:46:28.411Z,100424.56
2022-10-02T02:50:15.971Z,100425.67
2022-10-02T02:54:09.544Z,100426.13
2022-10-02T02:57:57.087Z,100430.55
2022-10-02T03:01:43.315Z,100434.50
2022-10-02T03:05:31.107Z,100435.78
2022-10-02T03:09:17.159Z,100435.23
2022-10-02T03:13:07.940Z,100436.92
2022-10-02T03:16:58.179Z,100441.21
2022-10-02T03:20:51.610Z,100440.98
2022-10-02T03:24:49.564Z,100445.43
2022-10-02T03:28:56.026Z,100445.16
2022-10-02T03:32:41.927Z,100449.30
2022-10-02T03:36:29.452Z,100452.46
2022-10-02T03:40:17.406Z,100458.95
2022-10-02T03:44:05.408Z,100459.14
2022-10-02T03:47:53.052Z,100462.25
2022-10-02T03:51:40.621Z,100461.41
2022-10-02T03:55:28.223Z,100467.29
2022-10-02T03:59:15.704Z,100466.77
2022-10-02T04:03:03.162Z,100474.08
2022-10-02T04:06:53.304Z,100475.00
2022-10-02T04:10:53.041Z,100474.79
2022-10-02T04:14:47.383Z,100473.55
2022-10-02T04:18:40.523Z,100477.26
2022-10-02T04:22:43.175Z,100482.44
2022-10-02T04:26:30.828Z,100488.23
2022-10-02T04:30:24.303Z,100492.20
2022-10-02T04:34:14.573Z,100494.25
2022-10-02T04:38:10.947Z,100498.81
2022-10-02T04:42:09.341Z,100501.38
2022-10-02T04:46:08.212Z,100507.18
2022-10-02T04:50:08.251Z,100518.98
2022-10-02T04:53:59.122Z,100520.73
2022-10-02T04:57:49.392Z,100525.01
2022-10-02T05:01:35.541Z,100532.14
2022-10-02T05:05:26.377Z,100532.29
2022-10-02T05:09:16.685Z,100533.95
2022-10-02T05:13:04.119Z,100534.73
2022-10-02T05:16:51.686Z,100533.13
2022-10-02T05:20:46.538Z,100532.48
2022-10-02T05:25:01.448Z,100531.21
2022-10-02T05:28:46.012Z,100530.23
2022-10-02T05:32:42.517Z,100534.14
2022-10-02T05:36:44.913Z,100534.14
2022-10-02T05:40:44.512Z,100531.75
2022-10-02T05:44:41.458Z,100534.45
2022-10-02T05:48:29.454Z,100536.81
2022-10-02T05:52:25.927Z,100540.79
2022-10-02T05:56:28.022Z,100543.26
2022-10-02T06:00:19.760Z,100548.00
2022-10-02T06:04:03.929Z,100550.02
2022-10-02T06:07:51.761Z,100553.01
2022-10-02T06:11:46.375Z,100555.36
2022-10-02T06:15:34.419Z,100556.96
2022-10-02T06:19:22.355Z,100559.38
2022-10-02T06:23:00.172Z,100559.77
2022-10-02T06:26:55.232Z,100560.59
2022-10-02T06:30:42.797Z,100561.17
2022-10-02T06:34:30.457Z,100563.89
2022-10-02T06:38:28.516Z,100566.41
2022-10-02T06:42:34.527Z,100566.65
2022-10-02T06:46:34.231Z,100570.42
2022-10-02T06:50:32.129Z,100568.48
2022-10-02T06:54:28.861Z,100573.32
2022-10-02T06:58:08.567Z,100566.81
2022-10-02T07:01:43.512Z,100566.48
2022-10-02T07:05:38.771Z,100559.66
2022-10-02T07:09:26.541Z,100558.20
2022-10-02T07:13:35.357Z,100560.23
2022-10-02T07:17:26.302Z,100569.59
2022-10-02T07:21:26.316Z,100566.66
2022-10-02T07:25:15.818Z,100565.07
2022-10-02T07:29:23.269Z,100560.82
2022-10-02T07:33:30.374Z,100564.78
2022-10-02T07:37:36.672Z,100574.54
2022-10-02T07:41:42.173Z,100574.91
2022-10-02T07:45:41.529Z,100574.95
2022-10-02T07:49:35.415Z,100567.31
2022-10-02T07:53:41.314Z,100568.05
2022-10-02T07:57:29.264Z,100570.80
2022-10-02T08:01:23.625Z,100574.17
2022-10-02T08:05:11.451Z,100574.69
2022-10-02T08:09:00.090Z,100583.77
2022-10-02T08:12:48.028Z,100589.89
2022-10-02T08:16:36.151Z,100594.91
2022-10-02T08:20:30.725Z,100591.66
2022-10-02T08:24:36.679Z,100584.41
2022-10-02T08:28:23.886Z,100585.10
2022-10-02T08:32:12.422Z,100581.77
2022-10-02T08:36:01.963Z,100588.42
2022-10-02T08:39:58.676Z,100595.61
2022-10-02T08:43:59.157Z,100595.10
2022-10-02T08:47:44.448Z,100584.90
2022-10-02T08:51:39.312Z,100581.96
2022-10-02T08:55:39.031Z,100589.23
2022-10-02T08:59:36.051Z,100580.29
2022-10-02T09:03:48.208Z,100573.52
2022-10-02T09:07:51.015Z,100564.21
2022-10-02T09:11:57.721Z,100549.23
2022-10-02T09:15:45.873Z,100550.44
2022-10-02T09:19:42.700Z,100551.18
2022-10-02T09:23:47.234Z,100550.19
2022-10-02T09:27:45.846Z,100554.09
2022-10-02T09:31:58.242Z,100555.58
2022-10-02T09:36:04.390Z,100558.73
2022-10-02T09:40:07.416Z,100566.06
2022-10-02T09:43:55.545Z,100564.25
2022-10-02T09:47:47.626Z,100564.39
2022-10-02T09:51:44.794Z,100565.44
2022-10-02T09:55:38.942Z,100556.39
2022-10-02T09:59:42.482Z,100544.16
2022-10-02T10:03:49.246Z,100535.16
2022-10-02T10:07:48.122Z,100535.77
2022-10-02T10:11:40.936Z,100534.56
2022-10-02T10:15:35.604Z,100533.38
2022-10-02T10:19:28.881Z,100535.83
2022-10-02T10:23:24.985Z,100534.73
2022-10-02T10:27:32.397Z,100530.70
2022-10-02T10:31:26.749Z,100536.23
2022-10-02T10:35:31.609Z,100528.63
2022-10-02T10:39:23.842Z,100522.24
2022-10-02T10:43:43.637Z,100521.42
2022-10-02T10:47:32.383Z,100526.08
2022-10-02T10:51:23.069Z,100526.64
2022-10-02T10:55:15.861Z,100520.89
2022-10-02T10:59:08.490Z,100517.25
2022-10-02T11:02:56.148Z,100523.43
2022-10-02T11:06:46.277Z,100517.47
2022-10-02T11:10:50.141Z,100509.03
2022-10-02T11:14:59.288Z,100511.44
2022-10-02T11:18:46.144Z,100506.86
2022-10-02T11:22:44.070Z,100499.68
2022-10-02T11:26:29.764Z,100481.40
2022-10-02T11:30:29.546Z,100487.40
2022-10-02T11:34:20.394Z,100484.45
2022-10-02T11:38:29.528Z,100489.80
2022-10-02T11:42:32.734Z,100486.59
2022-10-02T11:46:36.746Z,100488.18
2022-10-02T11:50:23.577Z,100490.92
2022-10-02T11:54:34.960Z,100492.88
2022-10-02T11:58:54.249Z,100481.81
2022-10-02T12:02:57.966Z,100478.13
2022-10-02T12:06:58.714Z,100474.30
2022-10-02T12:11:08.723Z,100461.23
2022-10-02T12:15:06.862Z,100457.02
2022-10-02T12:19:01.100Z,100464.37
2022-10-02T12:22:54.943Z,100466.58
2022-10-02T12:26:50.990Z,100466.72
2022-10-02T12:30:38.406Z,100459.38
2022-10-02T12:34:29.821Z,100459.52
2022-10-02T12:38:14.962Z,100448.86
2022-10-02T12:42:15.086Z,100448.16
2022-10-02T12:46:09.658Z,100441.36
2022-10-02T12:50:10.072Z,100440.20
2022-10-02T12:53:58.613Z,100441.79
2022-10-02T12:57:51.454Z,100444.02
2022-10-02T13:01:54.240Z,100448.31
2022-10-02T13:06:01.437Z,100465.19
2022-10-02T13:10:14.683Z,100467.96
2022-10-02T13:14:23.017Z,100465.55
2022-10-02T13:18:07.249Z,100460.45
2022-10-02T13:22:16.755Z,100457.85
2022-10-02T13:26:19.434Z,100450.83
2022-10-02T13:30:20.164Z,100445.96
2022-10-02T13:34:15.009Z,100449.09
2022-10-02T13:38:09.537Z,100450.02
2022-10-02T13:42:10.275Z,100451.09
2022-10-02T13:45:58.317Z,100455.59
2022-10-02T13:49:58.639Z,100451.04
2022-10-02T13:53:59.750Z,100456.62
2022-10-02T13:58:08.914Z,100450.64
2022-10-02T14:02:02.875Z,100451.15
2022-10-02T14:05:59.848Z,100435.82
2022-10-02T14:10:09.128Z,100430.29
2022-10-02T14:14:01.138Z,100437.23
2022-10-02T14:18:06.621Z,100439.05
2022-10-02T14:22:06.693Z,100450.81
2022-10-02T14:26:10.026Z,100445.61
2022-10-02T14:30:00.014Z,100448.44
2022-10-02T14:34:09.342Z,100446.27
2022-10-02T14:38:06.551Z,100441.04
2022-10-02T14:42:04.310Z,100435.55
2022-10-02T14:46:04.585Z,100440.40
2022-10-02T14:49:57.422Z,100445.63
2022-10-02T14:53:54.905Z,100442.80
2022-10-02T14:57:44.102Z,100442.89
2022-10-02T15:01:41.956Z,100441.10
2022-10-02T15:05:28.883Z,100441.63
2022-10-02T15:09:35.724Z,100440.13
2022-10-02T15:13:18.961Z,100444.89
2022-10-02T15:17:12.009Z,100441.10
2022-10-02T15:20:59.776Z,100442.75
2022-10-02T15:25:09.181Z,100445.52
2022-10-02T15:28:59.825Z,100449.59
2022-10-02T15:33:11.240Z,100448.83
2022-10-02T15:37:05.946Z,100458.42
2022-10-02T15:40:58.738Z,100466.94
2022-10-02T15:44:50.154Z,100464.32
2022-10-02T15:48:43.568Z,100466.73
2022-10-02T15:52:50.539Z,100473.53
2022-10-02T15:56:40.882Z,100479.59
2022-10-02T16:00:31.786Z,100477.94
2022-10-02T16:04:20.142Z,100482.52
2022-10-02T16:08:17.601Z,100490.42
2022-10-02T16:12:22.244Z,100491.86
2022-10-02T16:16:25.507Z,100496.72
2022-10-02T16:20:20.082Z,100502.05
2022-10-02T16:24:08.422Z,100504.34
2022-10-02T16:28:06.947Z,100509.85
2022-10-02T16:32:03.937Z,100509.42
2022-10-02T16:36:27.404Z,100509.36
2022-10-02T16:40:26.924Z,100509.92
2022-10-02T16:44:21.533Z,100508.08
2022-10-02T16:48:09.423Z,100515.23
2022-10-02T16:52:14.910Z,100517.02
2022-10-02T16:56:14.114Z,100520.11
2022-10-02T17:00:22.817Z,100530.02
2022-10-02T17:04:07.726Z,100526.40
2022-10-02T17:08:03.318Z,100525.60
2022-10-02T17:11:46.253Z,100526.86
2022-10-02T17:15:59.939Z,100528.88
2022-10-02T17:19:36.381Z,100535.02
2022-10-02T17:23:44.817Z,100545.64
2022-10-02T17:27:44.725Z,100552.27
2022-10-02T17:31:42.153Z,100562.36
2022-10-02T17:35:35.029Z,100565.23
2022-10-02T17:39:41.552Z,100564.18
2022-10-02T17:43:55.928Z,100570.64
2022-10-02T17:47:59.156Z,100577.45
2022-10-02T17:51:55.186Z,100577.72
2022-10-02T17:55:45.440Z,100581.58
2022-10-02T17:59:32.293Z,100588.35
2022-10-02T18:03:19.776Z,100587.70
2022-10-02T18:07:11.406Z,100592.40
2022-10-02T18:11:02.364Z,100592.22
2022-10-02T18:15:17.614Z,100598.86
2022-10-02T18:19:18.858Z,100604.85
2022-10-02T18:22:49.648Z,100610.96
2022-10-02T18:26:50.388Z,100614.44
2022-10-02T18:30:30.754Z,100610.77
2022-10-02T18:33:59.085Z,100612.09
2022-10-02T18:37:46.469Z,100608.86
2022-10-02T18:41:33.336Z,100610.08
2022-10-02T18:45:19.288Z,100610.95
2022-10-02T18:49:20.576Z,100609.77
2022-10-02T18:52:49.819Z,100616.08
2022-10-02T18:56:53.217Z,100617.46
2022-10-02T19:00:21.146Z,100623.77
2022-10-02T19:03:28.162Z,100627.18
2022-10-02T19:07:15.931Z,100630.79
2022-10-02T19:11:12.522Z,100635.67
2022-10-02T19:15:03.612Z,100633.55
2022-10-02T19:18:55.685Z,100637.23
2022-10-02T19:22:52.612Z,100633.23
2022-10-02T19:25:54.483Z,100632.23
2022-10-02T19:29:32.974Z,100631.98
2022-10-02T19:33:12.904Z,100639.17
2022-10-02T19:36:57.141Z,100635.95
2022-10-02T19:41:02.351Z,100635.28
2022-10-02T19:45:00.517Z,100635.54
2022-10-02T19:48:22.111Z,100642.44
2022-10-02T19:52:16.674Z,100642.52
2022-10-02T19:55:37.432Z,100644.67
2022-10-02T19:59:08.029Z,100646.80
2022-10-02T20:02:22.830Z,100647.99
2022-10-02T20:06:11.345Z,100652.84
2022-10-02T20:09:55.057Z,100653.59
2022-10-02T20:13:46.101Z,100650.31
2022-10-02T20:17:28.104Z,100657.66
2022-10-02T20:21:15.920Z,100655.09
2022-10-02T20:25:06.578Z,100668.48
2022-10-02T20:28:50.266Z,100667.91
2022-10-02T20:32:41.324Z,100672.21
2022-10-02T20:36:34.639Z,100674.39
2022-10-02T20:40:22.309Z,100673.61
2022-10-02T20:44:08.490Z,100672.23
2022-10-02T20:48:07.983Z,100677.20
2022-10-02T20:51:59.040Z,100679.17
2022-10-02T20:55:59.000Z,100686.17
2022-10-02T20:59:47.418Z,100687.67
2022-10-02T21:03:39.997Z,100689.17
2022-10-02T21:07:43.072Z,100696.70
2022-10-02T21:11:51.816Z,100696.92
2022-10-02T21:16:00.179Z,100695.00
2022-10-02T21:19:39.681Z,100687.89
2022-10-02T21:23:48.443Z,100687.03
2022-10-02T21:27:54.333Z,100690.83
2022-10-02T21:31:57.123Z,100685.73
2022-10-02T21:35:42.826Z,100682.20
2022-10-02T21:39:48.384Z,100677.02
2022-10-02T21:43:51.005Z,100683.66
2022-10-02T21:47:39.192Z,100687.37
2022-10-02T21:51:24.943Z,100696.14
2022-10-02T21:55:20.028Z,100693.06
2022-10-02T21:59:07.527Z,100689.70
2022-10-02T22:03:10.285Z,100692.14
2022-10-02T22:07:02.201Z,100688.88
2022-10-02T22:10:50.917Z,100693.40
2022-10-02T22:14:38.612Z,100689.81
2022-10-02T22:18:26.427Z,100698.88
2022-10-02T22:22:19.897Z,100699.67
2022-10-02T22:26:25.493Z,100700.02
2022-10-02T22:30:34.412Z,100699.76
2022-10-02T22:34:33.615Z,100698.95
2022-10-02T22:38:29.789Z,100695.80
2022-10-02T22:42:17.399Z,100693.58
2022-10-02T22:46:22.415Z,100696.81
2022-10-02T22:50:28.439Z,100697.80
2022-10-02T22:54:18.786Z,100698.84
2022-10-02T22:58:05.465Z,100698.27
2022-10-02T23:02:01.945Z,100698.77
2022-10-02T23:05:55.665Z,100702.66
2022-10-02T23:09:52.013Z,100709.20
2022-10-02T23:13:39.745Z,100717.16
2022-10-02T23:17:27.498Z,100714.77
2022-10-02T23:21:44.598Z,100712.23
2022-10-02T23:25:36.230Z,100715.55
2022-10-02T23:29:32.334Z,100717.13
2022-10-02T23:33:22.927Z,100717.75
2022-10-02T23:37:16.211Z,100716.14
2022-10-02T23:41:10.832Z,100723.85
2022-10-02T23:45:10.323Z,100718.91
2022-10-02T23:49:00.867Z,100720.12
2022-10-02T23:52:54.380Z,100716.89
2022-10-02T23:57:00.601Z,100718.61
